Terminal Aerodrome Forecast
Issued by NWS

Home | Current Version | Previous Version | Text Only | Print | Product List | Glossary On
Versions: 1 2 3 4 5 6 7 8 9 10 11 12 13 14 15 16 17 18 19 20 21 22 23 24 25 26 27 28 29 30
000
FTUS45 KREV 281900 AAA
TAFRNO
TAF AMD
KRNO 281943Z 2820/0118 35007KT 1SM -SN SCT008 OVC015
     FM282100 34009KT 3SM -SHSN SCT015 OVC030
     FM010100 35007KT P6SM SCT030 BKN045=

USA.gov is the U.S. government's official web portal to all federal, state and local government web resources and services.